5VG2 weather

Foster Field
Mathews, Virginia, United States

Public forecast

Using degrees Fahrenheit for public forecast. Weather courtesy of forecast.io.

Closest aviation weather report (METAR) to Foster Field

Closest report is Middle Peninsula Regional Airport, 19.1 nm (35.4 km) WNW. Retrieved 2020/01/26 07:35 UTC (9 minutes ago):

KFYJ 260735Z AUTO 00000KT 10SM BKN043 OVC048 05/04 A2993 RMK AO1 T00480040

Closest aviation forecast (TAF) to Foster Field

Closest forecast is Newport News Williamsburg International Airport, 20.2 nm (37.4 km) SSW. Retrieved 2020/01/26 06:24 UTC (1 hour ago):

TAF KPHF 260522Z 2606/2706 VRB03KT P6SM SCT030 TEMPO 2606/2609 3SM BR FM261400 29005KT P6SM SKC FM270000 VRB03KT P6SM SKC